Time,TemperatureF,DewpointF,PressureIn,WindDirection,WindDirectionDegrees,WindSpeedMPH,WindSpeedGustMPH,Humidity,HourlyPrecipIn,Conditions,Clouds,dailyrainin,SoftwareType,DateUTC
2013-03-16 00:05:00,12.3,9.2,29.63,SSW,200,2.0,3.0,87,0.00,,,0.00,Wunderground v.1.15,2013-03-16 08:05:00,
2013-03-16 00:15:00,11.9,8.8,29.64,SSW,200,0.0,1.0,87,0.00,,,0.00,Wunderground v.1.15,2013-03-16 08:15:00,
2013-03-16 00:25:00,11.7,8.6,29.64,SSW,200,0.0,0.0,87,0.00,,,0.00,Wunderground v.1.15,2013-03-16 08:25:00,
2013-03-16 00:30:00,11.7,8.6,29.64,SSW,200,0.0,0.0,87,0.00,,,0.00,Wunderground v.1.15,2013-03-16 08:30:00,
2013-03-16 00:40:00,11.6,8.5,29.64,SSW,200,0.0,0.0,87,0.00,,,0.00,Wunderground v.1.15,2013-03-16 08:40:00,
2013-03-16 00:45:00,11.7,8.6,29.64,SSW,200,0.0,0.0,87,0.00,,,0.00,Wunderground v.1.15,2013-03-16 08:45:00,
2013-03-16 00:50:00,11.9,9.0,29.64,SSW,204,1.0,2.0,88,0.00,,,0.00,Wunderground v.1.15,2013-03-16 08:50:00,
2013-03-16 01:00:00,12.9,9.8,29.64,SW,221,5.0,5.0,87,0.00,,,0.00,Wunderground v.1.15,2013-03-16 09:00:00,
2013-03-16 01:05:00,13.1,10.0,29.64,SW,221,4.0,5.0,87,0.00,,,0.00,Wunderground v.1.15,2013-03-16 09:05:00,
2013-03-16 01:15:00,13.5,10.4,29.64,South,181,8.0,13.0,87,0.00,,,0.00,Wunderground v.1.15,2013-03-16 09:15:00,
2013-03-16 01:25:00,14.0,10.8,29.64,SSE,167,13.0,13.0,87,0.00,,,0.00,Wunderground v.1.15,2013-03-16 09:25:00,
2013-03-16 01:30:00,14.0,10.8,29.65,SSE,166,13.0,13.0,87,0.00,,,0.00,Wunderground v.1.15,2013-03-16 09:30:00,
2013-03-16 01:35:00,14.1,10.9,29.65,SSE,166,13.0,16.0,87,0.00,,,0.00,Wunderground v.1.15,2013-03-16 09:35:00,
2013-03-16 01:45:00,14.0,10.8,29.65,SSE,164,12.0,13.0,87,0.00,,,0.00,Wunderground v.1.15,2013-03-16 09:45:00,
2013-03-16 01:50:00,14.0,10.8,29.65,South,169,13.0,13.0,87,0.00,,,0.00,Wunderground v.1.15,2013-03-16 09:50:00,
2013-03-16 02:00:00,14.0,10.6,29.65,South,170,13.0,13.0,86,0.00,,,0.00,Wunderground v.1.15,2013-03-16 10:00:00,
2013-03-16 02:10:00,14.0,10.6,29.65,South,170,13.0,13.0,86,0.00,,,0.00,Wunderground v.1.15,2013-03-16 10:10:00,
2013-03-16 02:20:00,13.6,10.2,29.65,South,173,11.0,11.0,86,0.00,,,0.00,Wunderground v.1.15,2013-03-16 10:20:00,
2013-03-16 02:25:00,13.5,9.8,29.65,South,181,11.0,11.0,85,0.00,,,0.00,Wunderground v.1.15,2013-03-16 10:25:00,
2013-03-16 02:35:00,12.8,9.1,29.65,South,191,6.0,10.0,85,0.00,,,0.00,Wunderground v.1.15,2013-03-16 10:35:00,
2013-03-16 02:45:00,11.6,7.7,29.65,South,191,3.0,4.0,84,0.00,,,0.00,Wunderground v.1.15,2013-03-16 10:45:00,
2013-03-16 02:55:00,10.7,6.8,29.65,SSW,194,5.0,5.0,84,0.00,,,0.00,Wunderground v.1.15,2013-03-16 10:55:00,
2013-03-16 03:05:00,10.2,6.3,29.65,SSW,196,6.0,6.0,84,0.00,,,0.00,Wunderground v.1.15,2013-03-16 11:05:00,
2013-03-16 03:15:00,9.9,5.8,29.65,SSW,196,5.0,6.0,83,0.00,,,0.00,Wunderground v.1.15,2013-03-16 11:15:00,
2013-03-16 03:20:00,9.5,5.4,29.65,SSW,196,5.0,5.0,83,0.00,,,0.00,Wunderground v.1.15,2013-03-16 11:20:00,
2013-03-16 03:25:00,9.3,5.2,29.65,SSW,196,4.0,5.0,83,0.00,,,0.00,Wunderground v.1.15,2013-03-16 11:25:00,
2013-03-16 03:35:00,10.4,6.5,29.65,SW,215,6.0,8.0,84,0.00,,,0.00,Wunderground v.1.15,2013-03-16 11:35:00,
2013-03-16 03:40:00,10.7,6.6,29.65,SW,214,6.0,7.0,83,0.00,,,0.00,Wunderground v.1.15,2013-03-16 11:40:00,
2013-03-16 03:50:00,10.0,5.6,29.65,South,186,4.0,5.0,82,0.00,,,0.00,Wunderground v.1.15,2013-03-16 11:50:00,
2013-03-16 03:55:00,10.2,6.3,29.65,SSE,166,5.0,8.0,84,0.00,,,0.00,Wunderground v.1.15,2013-03-16 11:55:00,
2013-03-16 04:05:00,11.4,7.2,29.65,SSE,167,10.0,13.0,83,0.00,,,0.00,Wunderground v.1.15,2013-03-16 12:05:00,
2013-03-16 04:10:00,11.4,7.0,29.65,South,169,10.0,10.0,82,0.00,,,0.00,Wunderground v.1.15,2013-03-16 12:10:00,
2013-03-16 04:20:00,11.2,6.5,29.65,South,179,8.0,8.0,81,0.00,,,0.00,Wunderground v.1.15,2013-03-16 12:20:00,
2013-03-16 04:30:00,11.1,6.4,29.65,South,183,7.0,7.0,81,0.00,,,0.00,Wunderground v.1.15,2013-03-16 12:30:00,
2013-03-16 04:35:00,10.9,5.9,29.65,South,184,7.0,7.0,80,0.00,,,0.00,Wunderground v.1.15,2013-03-16 12:35:00,
2013-03-16 04:45:00,9.7,5.0,29.65,South,180,5.0,9.0,81,0.00,,,0.00,Wunderground v.1.15,2013-03-16 12:45:00,
2013-03-16 04:55:00,10.7,6.0,29.65,South,174,10.0,11.0,81,0.00,,,0.00,Wunderground v.1.15,2013-03-16 12:55:00,
2013-03-16 05:00:00,10.7,5.7,29.65,South,180,10.0,10.0,80,0.00,,,0.00,Wunderground v.1.15,2013-03-16 13:00:00,
2013-03-16 05:10:00,9.5,4.3,29.65,South,188,5.0,5.0,79,0.00,,,0.00,Wunderground v.1.15,2013-03-16 13:10:00,
2013-03-16 05:20:00,8.6,3.7,29.65,South,174,5.0,6.0,80,0.00,,,0.00,Wunderground v.1.15,2013-03-16 13:20:00,
2013-03-16 05:30:00,9.7,5.0,29.65,SSE,156,7.0,7.0,81,0.00,,,0.00,Wunderground v.1.15,2013-03-16 13:30:00,
2013-03-16 05:35:00,9.7,4.8,29.65,SSE,156,9.0,10.0,80,0.00,,,0.00,Wunderground v.1.15,2013-03-16 13:35:00,
2013-03-16 05:45:00,10.4,5.2,29.65,SSE,156,13.0,16.0,79,0.00,,,0.00,Wunderground v.1.15,2013-03-16 13:45:00,
2013-03-16 05:50:00,10.5,5.3,29.65,SSE,157,14.0,16.0,79,0.00,,,0.00,Wunderground v.1.15,2013-03-16 13:50:00,
2013-03-16 06:00:00,10.2,4.7,29.65,SSE,156,15.0,18.0,78,0.00,,,0.00,Wunderground v.1.15,2013-03-16 14:00:00,
2013-03-16 06:10:00,10.2,4.4,29.65,SSE,156,16.0,16.0,77,0.00,,,0.00,Wunderground v.1.15,2013-03-16 14:10:00,
2013-03-16 06:20:00,10.0,4.2,29.65,SSE,156,16.0,18.0,77,0.00,,,0.00,Wunderground v.1.15,2013-03-16 14:20:00,
2013-03-16 06:30:00,10.2,4.1,29.66,SSE,153,16.0,16.0,76,0.00,,,0.00,Wunderground v.1.15,2013-03-16 14:30:00,
2013-03-16 06:40:00,10.0,3.9,29.66,SSE,155,16.0,17.0,76,0.00,,,0.00,Wunderground v.1.15,2013-03-16 14:40:00,
2013-03-16 06:45:00,10.0,3.9,29.66,SSE,153,16.0,17.0,76,0.00,,,0.00,Wunderground v.1.15,2013-03-16 14:45:00,
2013-03-16 06:55:00,10.0,3.9,29.66,SSE,156,16.0,18.0,76,0.00,,,0.00,Wunderground v.1.15,2013-03-16 14:55:00,
2013-03-16 07:05:00,10.0,3.7,29.66,SSE,150,15.0,15.0,75,0.00,,,0.00,Wunderground v.1.15,2013-03-16 15:05:00,
2013-03-16 07:10:00,9.7,3.1,29.66,SSE,153,15.0,15.0,74,0.00,,,0.00,Wunderground v.1.15,2013-03-16 15:10:00,
2013-03-16 07:20:00,9.5,3.2,29.67,SSE,155,15.0,16.0,75,0.00,,,0.00,Wunderground v.1.15,2013-03-16 15:20:00,
2013-03-16 07:30:00,9.5,3.2,29.67,SSE,155,15.0,15.0,75,0.00,,,0.00,Wunderground v.1.15,2013-03-16 15:30:00,
2013-03-16 07:40:00,9.3,2.7,29.67,SSE,152,15.0,15.0,74,0.00,,,0.00,Wunderground v.1.15,2013-03-16 15:40:00,
2013-03-16 07:45:00,9.3,2.7,29.68,SE,135,15.0,15.0,74,0.00,,,0.00,Wunderground v.1.15,2013-03-16 15:45:00,
2013-03-16 07:50:00,9.7,3.1,29.68,SSE,150,15.0,16.0,74,0.00,,,0.00,Wunderground v.1.15,2013-03-16 15:50:00,
2013-03-16 08:00:00,10.2,3.6,29.68,SE,146,15.0,15.0,74,0.00,,,0.00,Wunderground v.1.15,2013-03-16 16:00:00,
2013-03-16 08:05:00,10.5,4.1,29.68,SSE,153,15.0,16.0,75,0.00,,,0.00,Wunderground v.1.15,2013-03-16 16:05:00,
2013-03-16 08:15:00,10.9,4.2,29.68,SSE,155,15.0,18.0,74,0.00,,,0.00,Wunderground v.1.15,2013-03-16 16:15:00,
2013-03-16 08:31:00,11.4,4.4,29.68,SSE,150,17.0,18.0,73,0.00,,,0.00,Wunderground v.1.15,2013-03-16 16:31:00,
2013-03-16 08:41:00,11.2,4.2,29.68,SSE,152,17.0,19.0,73,0.00,,,0.00,Wunderground v.1.15,2013-03-16 16:41:00,
2013-03-16 08:50:00,11.9,5.2,29.68,SSE,155,19.0,21.0,74,0.00,,,0.00,Wunderground v.1.15,2013-03-16 16:50:00,
2013-03-16 09:00:00,11.6,4.9,29.68,SSE,148,19.0,19.0,74,0.00,,,0.00,Wunderground v.1.15,2013-03-16 17:00:00,
2013-03-16 09:10:00,11.7,5.0,29.68,SSE,155,19.0,19.0,74,0.00,,,0.00,Wunderground v.1.15,2013-03-16 17:10:00,
2013-03-16 09:15:00,11.7,4.7,29.69,SSE,153,19.0,19.0,73,0.00,,,0.00,Wunderground v.1.15,2013-03-16 17:15:00,
2013-03-16 09:25:00,11.9,4.6,29.69,SSE,156,19.0,19.0,72,0.00,,,0.00,Wunderground v.1.15,2013-03-16 17:25:00,
2013-03-16 09:35:00,12.3,5.0,29.69,SSE,155,19.0,21.0,72,0.00,,,0.00,Wunderground v.1.15,2013-03-16 17:35:00,
2013-03-16 09:40:00,12.1,5.1,29.69,SE,142,19.0,21.0,73,0.00,,,0.00,Wunderground v.1.15,2013-03-16 17:40:00,
2013-03-16 09:50:00,12.4,5.7,29.69,SSE,156,19.0,19.0,74,0.00,,,0.00,Wunderground v.1.15,2013-03-16 17:50:00,
2013-03-16 09:55:00,12.4,5.7,29.69,SSE,155,20.0,22.0,74,0.00,,,0.00,Wunderground v.1.15,2013-03-16 17:55:00,
2013-03-16 10:01:00,12.8,6.1,29.69,SSE,156,21.0,22.0,74,0.00,,,0.00,Wunderground v.1.15,2013-03-16 18:01:00,
2013-03-16 10:10:00,12.9,6.2,29.69,SSE,156,22.0,22.0,74,0.00,,,0.00,Wunderground v.1.15,2013-03-16 18:10:00,
2013-03-16 10:20:00,12.6,5.6,29.69,SSE,156,20.0,22.0,73,0.00,,,0.00,Wunderground v.1.15,2013-03-16 18:20:00,
2013-03-16 10:25:00,12.3,5.3,29.69,SSE,155,20.0,22.0,73,0.00,,,0.00,Wunderground v.1.15,2013-03-16 18:25:00,
2013-03-16 10:35:00,12.1,4.8,29.70,SSE,155,20.0,22.0,72,0.00,,,0.00,Wunderground v.1.15,2013-03-16 18:35:00,
2013-03-16 10:46:00,12.3,4.7,29.70,SSE,155,20.0,21.0,71,0.00,,,0.00,Wunderground v.1.15,2013-03-16 18:46:00,
2013-03-16 10:55:00,12.4,4.8,29.70,SSE,155,20.0,20.0,71,0.00,,,0.00,Wunderground v.1.15,2013-03-16 18:55:00,
2013-03-16 11:05:00,12.3,4.7,29.71,SSE,156,20.0,24.0,71,0.00,,,0.00,Wunderground v.1.15,2013-03-16 19:05:00,
2013-03-16 11:11:00,12.4,5.1,29.71,SSE,156,20.0,20.0,72,0.00,,,0.00,Wunderground v.1.15,2013-03-16 19:11:00,
2013-03-16 11:20:00,12.4,5.7,29.71,SSE,156,22.0,22.0,74,0.00,,,0.00,Wunderground v.1.15,2013-03-16 19:20:00,
2013-03-16 11:30:00,12.8,6.7,29.71,SSE,156,22.0,22.0,76,0.00,,,0.00,Wunderground v.1.15,2013-03-16 19:30:00,
2013-03-16 11:40:00,12.8,7.5,29.71,SSE,156,23.0,23.0,79,0.00,,,0.00,Wunderground v.1.15,2013-03-16 19:40:00,
2013-03-16 11:45:00,12.9,7.9,29.71,SSE,155,24.0,29.0,80,0.00,,,0.00,Wunderground v.1.15,2013-03-16 19:45:00,
2013-03-16 11:55:00,12.9,8.2,29.71,SSE,155,24.0,26.0,81,0.00,,,0.00,Wunderground v.1.15,2013-03-16 19:55:00,
2013-03-16 12:01:00,13.3,8.8,29.71,SSE,156,25.0,27.0,82,0.00,,,0.00,Wunderground v.1.15,2013-03-16 20:01:00,
2013-03-16 12:10:00,13.1,9.2,29.71,SSE,156,25.0,25.0,84,0.00,,,0.00,Wunderground v.1.15,2013-03-16 20:10:00,
2013-03-16 12:20:00,13.3,9.6,29.72,SSE,156,25.0,26.0,85,0.00,,,0.00,Wunderground v.1.15,2013-03-16 20:20:00,
2013-03-16 12:30:00,13.3,9.6,29.72,SSE,152,23.0,26.0,85,0.00,,,0.00,Wunderground v.1.15,2013-03-16 20:30:00,
2013-03-16 12:40:00,13.5,10.1,29.72,SSE,153,23.0,25.0,86,0.00,,,0.00,Wunderground v.1.15,2013-03-16 20:40:00,
2013-03-16 12:45:00,13.6,10.2,29.72,SSE,156,23.0,25.0,86,0.00,,,0.00,Wunderground v.1.15,2013-03-16 20:45:00,
2013-03-16 12:55:00,13.8,10.4,29.72,SSE,153,23.0,25.0,86,0.00,,,0.00,Wunderground v.1.15,2013-03-16 20:55:00,
2013-03-16 13:05:00,14.1,10.7,29.72,SSE,152,23.0,24.0,86,0.00,,,0.00,Wunderground v.1.15,2013-03-16 21:05:00,
2013-03-16 13:15:00,14.3,11.1,29.73,SSE,156,22.0,26.0,87,0.00,,,0.00,Wunderground v.1.15,2013-03-16 21:15:00,
2013-03-16 13:20:00,14.4,11.2,29.73,SSE,155,22.0,22.0,87,0.00,,,0.00,Wunderground v.1.15,2013-03-16 21:20:00,
2013-03-16 13:30:00,14.6,11.4,29.73,SSE,153,22.0,22.0,87,0.00,,,0.00,Wunderground v.1.15,2013-03-16 21:30:00,
2013-03-16 13:35:00,14.8,11.6,29.73,SSE,156,22.0,24.0,87,0.00,,,0.00,Wunderground v.1.15,2013-03-16 21:35:00,
2013-03-16 13:45:00,14.9,11.7,29.73,SSE,152,23.0,23.0,87,0.00,,,0.00,Wunderground v.1.15,2013-03-16 21:45:00,
2013-03-16 13:55:00,14.9,11.7,29.73,SSE,152,23.0,23.0,87,0.00,,,0.00,Wunderground v.1.15,2013-03-16 21:55:00,
2013-03-16 14:05:00,15.1,12.2,29.73,SSE,156,22.0,28.0,88,0.00,,,0.00,Wunderground v.1.15,2013-03-16 22:05:00,
2013-03-16 14:10:00,15.4,12.5,29.73,SSE,155,22.0,24.0,88,0.00,,,0.00,Wunderground v.1.15,2013-03-16 22:10:00,
2013-03-16 14:20:00,15.2,12.0,29.73,SSE,156,22.0,25.0,87,0.00,,,0.00,Wunderground v.1.15,2013-03-16 22:20:00,
2013-03-16 14:25:00,15.4,12.5,29.73,SSE,156,22.0,25.0,88,0.00,,,0.00,Wunderground v.1.15,2013-03-16 22:25:00,
2013-03-16 14:35:00,15.4,12.5,29.73,SSE,156,22.0,24.0,88,0.00,,,0.00,Wunderground v.1.15,2013-03-16 22:35:00,
2013-03-16 14:46:00,15.4,12.5,29.73,SSE,156,22.0,25.0,88,0.00,,,0.00,Wunderground v.1.15,2013-03-16 22:46:00,
2013-03-16 14:55:00,15.9,13.0,29.73,SSE,157,23.0,23.0,88,0.00,,,0.00,Wunderground v.1.15,2013-03-16 22:55:00,
2013-03-16 15:05:00,16.2,13.5,29.73,SSE,160,22.0,29.0,89,0.00,,,0.00,Wunderground v.1.15,2013-03-16 23:05:00,
2013-03-16 15:15:00,16.5,13.8,29.73,SSE,156,27.0,27.0,89,0.00,,,0.00,Wunderground v.1.15,2013-03-16 23:15:00,
2013-03-16 15:25:00,16.9,14.2,29.73,SSE,156,29.0,34.0,89,0.00,,,0.00,Wunderground v.1.15,2013-03-16 23:25:00,
2013-03-16 15:30:00,17.0,14.3,29.73,SSE,157,29.0,29.0,89,0.00,,,0.00,Wunderground v.1.15,2013-03-16 23:30:00,
2013-03-16 15:40:00,17.2,14.5,29.73,SSE,157,29.0,29.0,89,0.00,,,0.00,Wunderground v.1.15,2013-03-16 23:40:00,
2013-03-16 15:50:00,17.3,14.9,29.73,SSE,163,28.0,28.0,90,0.00,,,0.00,Wunderground v.1.15,2013-03-16 23:50:00,
2013-03-16 16:20:00,18.1,15.7,29.73,SSE,163,28.0,31.0,90,0.00,,,0.00,Wunderground v.1.15,2013-03-17 00:20:00,
2013-03-16 16:30:00,18.1,15.7,29.73,South,170,28.0,28.0,90,0.00,,,0.00,Wunderground v.1.15,2013-03-17 00:30:00,
2013-03-16 16:40:00,18.3,15.9,29.73,SSE,167,27.0,27.0,90,0.00,,,0.00,Wunderground v.1.15,2013-03-17 00:40:00,
2013-03-16 16:50:00,18.4,16.0,29.74,South,172,28.0,30.0,90,0.00,,,0.00,Wunderground v.1.15,2013-03-17 00:50:00,
2013-03-16 16:55:00,18.6,16.2,29.74,South,172,28.0,31.0,90,0.00,,,0.00,Wunderground v.1.15,2013-03-17 00:55:00,
2013-03-16 17:05:00,18.8,16.4,29.74,South,174,27.0,28.0,90,0.00,,,0.00,Wunderground v.1.15,2013-03-17 01:05:00,
2013-03-16 17:10:00,18.8,16.4,29.74,South,180,27.0,29.0,90,0.00,,,0.00,Wunderground v.1.15,2013-03-17 01:10:00,
2013-03-16 17:20:00,18.1,15.7,29.74,SSW,193,26.0,26.0,90,0.00,,,0.00,Wunderground v.1.15,2013-03-17 01:20:00,
2013-03-16 17:25:00,17.8,15.4,29.74,South,191,25.0,26.0,90,0.00,,,0.00,Wunderground v.1.15,2013-03-17 01:25:00,
2013-03-16 17:30:00,17.5,15.1,29.75,SSW,194,25.0,25.0,90,0.00,,,0.00,Wunderground v.1.15,2013-03-17 01:30:00,
2013-03-16 17:40:00,17.2,14.5,29.75,SSW,194,24.0,24.0,89,0.00,,,0.00,Wunderground v.1.15,2013-03-17 01:40:00,
2013-03-16 17:50:00,16.9,14.2,29.76,SSW,193,24.0,28.0,89,0.00,,,0.00,Wunderground v.1.15,2013-03-17 01:50:00,
2013-03-16 18:00:00,16.5,13.8,29.76,South,191,23.0,23.0,89,0.00,,,0.00,Wunderground v.1.15,2013-03-17 02:00:00,
2013-03-16 18:05:00,16.4,13.7,29.76,SSW,194,23.0,23.0,89,0.00,,,0.00,Wunderground v.1.15,2013-03-17 02:05:00,
2013-03-16 18:15:00,16.4,13.7,29.77,South,190,23.0,23.0,89,0.00,,,0.00,Wunderground v.1.15,2013-03-17 02:15:00,
2013-03-16 18:20:00,16.4,13.7,29.77,South,190,22.0,25.0,89,0.00,,,0.00,Wunderground v.1.15,2013-03-17 02:20:00,
2013-03-16 18:30:00,15.7,12.8,29.77,SSW,194,23.0,24.0,88,0.00,,,0.00,Wunderground v.1.15,2013-03-17 02:30:00,
2013-03-16 18:40:00,15.6,12.9,29.77,South,174,23.0,24.0,89,0.00,,,0.00,Wunderground v.1.15,2013-03-17 02:40:00,
2013-03-16 18:50:00,15.2,12.3,29.78,South,186,23.0,27.0,88,0.00,,,0.00,Wunderground v.1.15,2013-03-17 02:50:00,
2013-03-16 19:00:00,14.8,11.9,29.79,South,184,24.0,24.0,88,0.00,,,0.00,Wunderground v.1.15,2013-03-17 03:00:00,
2013-03-16 19:10:00,14.6,11.7,29.79,South,184,25.0,25.0,88,0.00,,,0.00,Wunderground v.1.15,2013-03-17 03:10:00,
2013-03-16 19:20:00,14.4,11.5,29.79,South,181,26.0,27.0,88,0.00,,,0.00,Wunderground v.1.15,2013-03-17 03:20:00,
2013-03-16 19:25:00,14.4,11.5,29.79,South,181,25.0,29.0,88,0.00,,,0.00,Wunderground v.1.15,2013-03-17 03:25:00,
2013-03-16 19:35:00,14.3,11.4,29.79,South,177,24.0,25.0,88,0.00,,,0.00,Wunderground v.1.15,2013-03-17 03:35:00,
2013-03-16 19:45:00,14.3,11.4,29.80,South,180,23.0,23.0,88,0.00,,,0.00,Wunderground v.1.15,2013-03-17 03:45:00,
2013-03-16 19:50:00,14.3,11.4,29.80,South,186,23.0,28.0,88,0.00,,,0.00,Wunderground v.1.15,2013-03-17 03:50:00,
2013-03-16 19:55:00,14.1,11.2,29.80,South,183,23.0,28.0,88,0.00,,,0.00,Wunderground v.1.15,2013-03-17 03:55:00,
2013-03-16 20:00:00,14.1,11.2,29.81,South,184,24.0,25.0,88,0.00,,,0.00,Wunderground v.1.15,2013-03-17 04:00:00,
2013-03-16 20:05:00,14.0,11.1,29.81,South,179,22.0,25.0,88,0.00,,,0.00,Wunderground v.1.15,2013-03-17 04:05:00,
2013-03-16 20:10:00,13.8,10.9,29.81,South,172,22.0,22.0,88,0.00,,,0.00,Wunderground v.1.15,2013-03-17 04:10:00,
2013-03-16 20:15:00,13.8,10.9,29.82,South,191,23.0,23.0,88,0.00,,,0.00,Wunderground v.1.15,2013-03-17 04:15:00,
2013-03-16 20:25:00,14.0,11.1,29.82,SSW,197,20.0,24.0,88,0.00,,,0.00,Wunderground v.1.15,2013-03-17 04:25:00,
2013-03-16 20:35:00,14.0,11.1,29.83,South,187,21.0,25.0,88,0.00,,,0.00,Wunderground v.1.15,2013-03-17 04:35:00,
2013-03-16 20:40:00,14.0,11.1,29.83,SSW,197,21.0,21.0,88,0.00,,,0.00,Wunderground v.1.15,2013-03-17 04:40:00,
2013-03-16 20:45:00,14.0,11.1,29.84,SSW,193,20.0,21.0,88,0.00,,,0.00,Wunderground v.1.15,2013-03-17 04:45:00,
2013-03-16 20:50:00,14.0,11.1,29.84,SSW,194,20.0,20.0,88,0.00,,,0.00,Wunderground v.1.15,2013-03-17 04:50:00,
2013-03-16 21:00:00,14.0,11.4,29.84,SSW,197,21.0,21.0,89,0.00,,,0.00,Wunderground v.1.15,2013-03-17 05:00:00,
2013-03-16 21:10:00,14.0,11.4,29.84,SSW,203,20.0,20.0,89,0.00,,,0.00,Wunderground v.1.15,2013-03-17 05:10:00,
2013-03-16 21:20:00,14.1,11.2,29.85,SSW,193,20.0,20.0,88,0.00,,,0.00,Wunderground v.1.15,2013-03-17 05:20:00,
2013-03-16 21:30:00,14.1,11.5,29.87,South,191,18.0,18.0,89,0.00,,,0.00,Wunderground v.1.15,2013-03-17 05:30:00,
2013-03-16 21:35:00,14.1,11.5,29.87,South,191,18.0,18.0,89,0.00,,,0.00,Wunderground v.1.15,2013-03-17 05:35:00,
2013-03-16 21:45:00,14.1,11.5,29.88,South,183,17.0,17.0,89,0.00,,,0.00,Wunderground v.1.15,2013-03-17 05:45:00,
2013-03-16 21:55:00,14.1,11.5,29.88,South,191,14.0,16.0,89,0.00,,,0.00,Wunderground v.1.15,2013-03-17 05:55:00,
2013-03-16 22:00:00,14.3,11.7,29.89,South,186,13.0,14.0,89,0.00,,,0.00,Wunderground v.1.15,2013-03-17 06:00:00,
2013-03-16 22:10:00,14.4,11.8,29.89,South,187,14.0,14.0,89,0.00,,,0.00,Wunderground v.1.15,2013-03-17 06:10:00,
2013-03-16 22:15:00,14.4,11.8,29.90,SSW,198,13.0,14.0,89,0.00,,,0.00,Wunderground v.1.15,2013-03-17 06:15:00,
2013-03-16 22:20:00,14.4,11.8,29.90,SSW,194,15.0,16.0,89,0.00,,,0.00,Wunderground v.1.15,2013-03-17 06:20:00,
2013-03-16 22:30:00,14.4,11.8,29.91,SSW,210,15.0,20.0,89,0.00,,,0.00,Wunderground v.1.15,2013-03-17 06:30:00,
2013-03-16 22:40:00,14.4,11.8,29.91,SSW,212,16.0,19.0,89,0.00,,,0.00,Wunderground v.1.15,2013-03-17 06:40:00,
2013-03-16 22:50:00,14.3,11.4,29.91,SSW,205,16.0,17.0,88,0.00,,,0.00,Wunderground v.1.15,2013-03-17 06:50:00,
2013-03-16 23:00:00,14.3,11.7,29.92,SSW,211,16.0,16.0,89,0.00,,,0.00,Wunderground v.1.15,2013-03-17 07:00:00,
2013-03-16 23:05:00,14.0,11.1,29.92,SSW,203,16.0,16.0,88,0.00,,,0.00,Wunderground v.1.15,2013-03-17 07:05:00,
2013-03-16 23:10:00,14.0,11.1,29.92,SSW,203,13.0,13.0,88,0.00,,,0.00,Wunderground v.1.15,2013-03-17 07:10:00,
2013-03-16 23:20:00,13.8,10.9,29.93,SSW,201,12.0,12.0,88,0.00,,,0.00,Wunderground v.1.15,2013-03-17 07:20:00,
2013-03-16 23:30:00,13.6,10.7,29.94,SSW,193,11.0,11.0,88,0.00,,,0.00,Wunderground v.1.15,2013-03-17 07:30:00,
2013-03-16 23:40:00,13.1,10.2,29.94,South,190,10.0,10.0,88,0.00,,,0.00,Wunderground v.1.15,2013-03-17 07:40:00,
2013-03-16 23:50:00,12.8,9.9,29.95,South,181,9.0,11.0,88,0.00,,,0.00,Wunderground v.1.15,2013-03-17 07:50:00,
2013-03-16 23:55:00,12.6,9.7,29.95,South,186,10.0,11.0,88,0.00,,,0.00,Wunderground v.1.15,2013-03-17 07:55:00,